»·PEaware :: SWA1716 KSJC-KRNO

SWA1716 :: KSJC-KRNO

FLIGHT INFORMATION

Flight Status: Arrived
Operator:
Southwest Airlines
More flights by this operator :: More flights under this callsign
Pilot: Jeff S. (20204)
Aircraft: BOEING 737-700
(B737)
More flights by this aircraft type
Origin: KSJC Mineta San Jose Intl
United States
Destination: KRNO Reno/Tahoe Intl
United States
More flights between these airports :: More routes between these airports
Route: +SJC2 MOONY SJC BMRNG SAC SIERA3
File this flight plan on PilotEdge
Remarks:
Altitude:
(Current/Filed)
29,000ft
Speed:
(Current/Filed)
420kts
Departed: 06-Dec-18 10:45 AM
Arrived: 06-Dec-18 11:34 AM
Distance/Time
Traveled:
164nm/0:49
Distance/Time
To Go:
Arrived

Flight Plot

Page will automatically refresh every two minutes.

Flight plan parsing failed; only flown route is shown


Map Options




Map Legend


Flown Route
Filed Route
Departure Airport
Arrival Airport
Navaid (VOR, NDB)
Fix

Horizontal Profiles

Position Reports

Time Latitude Longitude Heading Altitude Ground
Speed
06-Dec-18 09:52 37.369328 -121.928202 316 72ft 0kts
06-Dec-18 09:53 37.369328 -121.928202 316 72ft 0kts
06-Dec-18 09:54 37.369328 -121.928202 316 72ft 0kts
06-Dec-18 09:55 37.369328 -121.928202 316 72ft 0kts
06-Dec-18 09:56 37.369328 -121.928202 316 72ft 0kts
06-Dec-18 09:57 37.369328 -121.928202 316 72ft 0kts
06-Dec-18 09:58 37.369328 -121.928202 316 72ft 0kts
06-Dec-18 09:59 37.369328 -121.928202 316 72ft 0kts
06-Dec-18 10:00 37.369328 -121.928202 316 72ft 0kts
06-Dec-18 10:01 37.369328 -121.928202 316 72ft 0kts
06-Dec-18 10:02 37.369328 -121.928202 316 72ft 0kts
06-Dec-18 10:03 37.369328 -121.928202 316 72ft 0kts
06-Dec-18 10:04 37.369328 -121.928202 316 72ft 0kts
06-Dec-18 10:05 37.369328 -121.928202 316 72ft 0kts
06-Dec-18 10:06 37.369328 -121.928202 316 72ft 0kts
06-Dec-18 10:07 37.369328 -121.928202 316 72ft 0kts
06-Dec-18 10:08 37.369328 -121.928202 316 72ft 0kts
06-Dec-18 10:09 37.369328 -121.928202 316 72ft 0kts
06-Dec-18 10:10 37.369328 -121.928202 316 72ft 0kts
06-Dec-18 10:11 37.369328 -121.928202 316 72ft 0kts
06-Dec-18 10:12 37.369328 -121.928202 316 72ft 0kts
06-Dec-18 10:13 37.369328 -121.928202 316 72ft 0kts
06-Dec-18 10:14 37.369328 -121.928202 316 72ft 0kts
06-Dec-18 10:15 37.369328 -121.928202 316 72ft 0kts
06-Dec-18 10:16 37.369328 -121.928202 316 72ft 0kts
06-Dec-18 10:17 37.369328 -121.928202 316 72ft 0kts
06-Dec-18 10:18 37.368866 -121.927974 11 72ft 2kts
06-Dec-18 10:19 37.368406 -121.928313 17 72ft 2kts
06-Dec-18 10:20 37.367957 -121.928177 311 72ft 0kts
06-Dec-18 10:21 37.367957 -121.928177 311 72ft 0kts
06-Dec-18 10:22 37.367957 -121.928177 311 72ft 0kts
06-Dec-18 10:23 37.367958 -121.928179 311 72ft 0kts
06-Dec-18 10:24 37.367960 -121.928181 311 72ft 0kts
06-Dec-18 10:25 37.367961 -121.928183 311 72ft 0kts
06-Dec-18 10:26 37.367963 -121.928186 311 72ft 0kts
06-Dec-18 10:27 37.367965 -121.928188 311 72ft 0kts
06-Dec-18 10:28 37.368324 -121.928827 276 72ft 5kts
06-Dec-18 10:29 37.367148 -121.928643 135 72ft 6kts
06-Dec-18 10:30 37.365052 -121.926321 139 72ft 13kts
06-Dec-18 10:31 37.361508 -121.922362 139 72ft 20kts
06-Dec-18 10:32 37.360395 -121.921148 138 72ft 8kts
06-Dec-18 10:33 37.357311 -121.917721 138 72ft 18kts
06-Dec-18 10:34 37.355556 -121.916299 198 72ft 2kts
06-Dec-18 10:35 37.354213 -121.915314 139 72ft 0kts
06-Dec-18 10:36 37.354213 -121.915314 139 72ft 0kts
06-Dec-18 10:37 37.354213 -121.915314 139 72ft 0kts
06-Dec-18 10:38 37.354213 -121.915313 139 72ft 0kts
06-Dec-18 10:39 37.354211 -121.915312 139 72ft 0kts
06-Dec-18 10:40 37.354210 -121.915310 139 72ft 0kts
06-Dec-18 10:41 37.353320 -121.915223 225 72ft 0kts
06-Dec-18 10:42 37.353318 -121.915225 225 72ft 0kts
06-Dec-18 10:43 37.353672 -121.916825 316 72ft 16kts
06-Dec-18 10:44 37.368758 -121.933224 319 458ft 174kts
06-Dec-18 10:45 37.417816 -121.945416 77 4554ft 226kts
06-Dec-18 10:46 37.388319 -121.879516 122 6553ft 187kts
06-Dec-18 10:47 37.337356 -121.836675 151 4620ft 189kts
06-Dec-18 10:48 37.295025 -121.790372 131 3179ft 193kts
06-Dec-18 10:49 37.244448 -121.726987 130 3978ft 282kts
06-Dec-18 10:50 37.201247 -121.661639 126 6179ft 238kts
06-Dec-18 10:51 37.160367 -121.592423 136 9168ft 278kts
06-Dec-18 10:52 37.085573 -121.605734 230 12092ft 334kts
06-Dec-18 10:53 37.091984 -121.715664 313 15670ft 356kts
06-Dec-18 10:54 37.187640 -121.739204 4 18708ft 373kts
06-Dec-18 10:55 37.291110 -121.724521 7 19271ft 377kts
06-Dec-18 10:56 37.397098 -121.708738 6 22285ft 391kts
06-Dec-18 10:57 37.507161 -121.692388 6 24788ft 406kts
06-Dec-18 10:58 37.621299 -121.676260 6 26805ft 419kts
06-Dec-18 10:59 37.738485 -121.658674 6 28877ft 423kts
06-Dec-18 11:00 37.855047 -121.641122 6 28999ft 422kts
06-Dec-18 11:01 37.971213 -121.623582 6 29000ft 421kts
06-Dec-18 11:02 38.087287 -121.606001 6 29007ft 417kts
06-Dec-18 11:03 38.202092 -121.588556 6 29022ft 411kts
06-Dec-18 11:04 38.314683 -121.571392 6 29031ft 407kts
06-Dec-18 11:05 38.427685 -121.551685 17 29010ft 411kts
06-Dec-18 11:06 38.515615 -121.460143 44 28845ft 410kts
06-Dec-18 11:07 38.595450 -121.358111 44 27794ft 404kts
06-Dec-18 11:08 38.674271 -121.257072 45 26581ft 397kts
06-Dec-18 11:09 38.751394 -121.157889 45 25382ft 389kts
06-Dec-18 11:10 38.826084 -121.061515 45 24198ft 381kts
06-Dec-18 11:11 38.900174 -120.965622 45 23000ft 375kts
06-Dec-18 11:12 38.972663 -120.871504 45 21806ft 369kts
06-Dec-18 11:13 39.042851 -120.780099 45 20682ft 364kts
06-Dec-18 11:14 39.113461 -120.687884 45 19684ft 358kts
06-Dec-18 11:15 39.182674 -120.597188 45 18685ft 351kts
06-Dec-18 11:16 39.250701 -120.507796 45 17686ft 346kts
06-Dec-18 11:17 39.317574 -120.419665 45 16688ft 341kts
06-Dec-18 11:18 39.383377 -120.332680 46 16043ft 339kts
06-Dec-18 11:19 39.450883 -120.245941 44 16100ft 342kts
06-Dec-18 11:20 39.518975 -120.160391 44 16097ft 341kts
06-Dec-18 11:21 39.584571 -120.078176 44 15029ft 319kts
06-Dec-18 11:22 39.647619 -119.999537 44 13237ft 310kts
06-Dec-18 11:23 39.708386 -119.923649 44 12127ft 285kts
06-Dec-18 11:24 39.778558 -119.905934 354 11332ft 273kts
06-Dec-18 11:25 39.855941 -119.908585 22 9415ft 285kts
06-Dec-18 11:27 39.872787 -119.825298 126 9041ft 270kts
06-Dec-18 11:28 39.807797 -119.782680 177 9052ft 271kts
06-Dec-18 11:29 39.732538 -119.773700 167 8856ft 272kts
06-Dec-18 11:30 39.660366 -119.768749 179 7411ft 231kts
06-Dec-18 11:31 39.602657 -119.769048 178 6232ft 189kts
06-Dec-18 11:32 39.551570 -119.769104 178 5278ft 182kts
06-Dec-18 11:33 39.506170 -119.769233 177 4449ft 145kts
06-Dec-18 11:34 39.489422 -119.770194 269 4425ft 3kts
06-Dec-18 11:35 39.489420 -119.770432 269 4425ft 0kts
06-Dec-18 11:36 39.491416 -119.771639 359 4425ft 20kts
06-Dec-18 11:37 39.498040 -119.771596 0 4425ft 25kts
06-Dec-18 11:38 39.503507 -119.771567 358 4425ft 14kts
06-Dec-18 11:39 39.504483 -119.774116 321 4425ft 7kts
06-Dec-18 11:40 39.505116 -119.774195 359 4425ft 0kts
06-Dec-18 11:41 39.505116 -119.774195 359 4425ft 0kts
06-Dec-18 11:42 39.505116 -119.774195 359 4425ft 0kts
06-Dec-18 11:43 39.505116 -119.774195 359 4425ft 0kts
06-Dec-18 11:44 39.781586 -119.781343 177 9053ft 271kts
06-Dec-18 11:45 39.505116 -119.774195 359 4425ft 0kts
06-Dec-18 11:46 39.505116 -119.774195 359 4425ft 0kts
06-Dec-18 11:47 39.505116 -119.774195 359 4425ft 0kts
06-Dec-18 11:48 39.505116 -119.774195 359 4425ft 0kts

Navigation Log

Ident Type
Flight plan parsing failed, navigation log unavailable